sensor_id;sensor_type;location;lat;lon;timestamp;pressure;altitude;pressure_sealevel;temperature;humidity
23172;BME280;11754;42.664;23.594;2024-02-28T00:04:03;95743.47;;;8.14;73.85
23172;BME280;11754;42.664;23.594;2024-02-28T00:06:29;95748.66;;;8.33;73.78
23172;BME280;11754;42.664;23.594;2024-02-28T00:08:54;95746.09;;;8.14;74.21
23172;BME280;11754;42.664;23.594;2024-02-28T00:11:20;95757.06;;;8.00;74.78
23172;BME280;11754;42.664;23.594;2024-02-28T00:13:46;95757.66;;;7.93;75.60
23172;BME280;11754;42.664;23.594;2024-02-28T00:16:11;95764.06;;;7.71;76.44
23172;BME280;11754;42.664;23.594;2024-02-28T00:18:37;95761.03;;;7.57;76.52
23172;BME280;11754;42.664;23.594;2024-02-28T00:21:03;95762.72;;;7.38;77.33
23172;BME280;11754;42.664;23.594;2024-02-28T00:26:50;95760.25;;;7.08;78.81
23172;BME280;11754;42.664;23.594;2024-02-28T00:29:16;95759.41;;;6.97;79.69
23172;BME280;11754;42.664;23.594;2024-02-28T00:31:41;95756.09;;;6.95;80.23
23172;BME280;11754;42.664;23.594;2024-02-28T00:34:07;95757.47;;;6.99;80.45
23172;BME280;11754;42.664;23.594;2024-02-28T00:36:34;95753.78;;;7.21;79.17
23172;BME280;11754;42.664;23.594;2024-02-28T00:38:59;95756.94;;;7.06;79.44
23172;BME280;11754;42.664;23.594;2024-02-28T00:41:24;95762.44;;;7.03;80.16
23172;BME280;11754;42.664;23.594;2024-02-28T00:43:50;95755.69;;;6.90;79.96
23172;BME280;11754;42.664;23.594;2024-02-28T00:46:15;95762.19;;;6.86;80.36
23172;BME280;11754;42.664;23.594;2024-02-28T00:48:41;95761.47;;;6.74;81.02
23172;BME280;11754;42.664;23.594;2024-02-28T00:51:06;95763.81;;;6.68;81.25
23172;BME280;11754;42.664;23.594;2024-02-28T00:53:33;95755.69;;;6.90;81.15
23172;BME280;11754;42.664;23.594;2024-02-28T01:16:21;95775.41;;;6.75;83.09
23172;BME280;11754;42.664;23.594;2024-02-28T01:18:47;95772.06;;;6.63;82.87
23172;BME280;11754;42.664;23.594;2024-02-28T01:21:12;95773.44;;;6.58;83.55
23172;BME280;11754;42.664;23.594;2024-02-28T01:23:38;95777.03;;;6.57;83.83
23172;BME280;11754;42.664;23.594;2024-02-28T01:26:04;95781.03;;;6.61;83.75
23172;BME280;11754;42.664;23.594;2024-02-28T01:28:30;95774.25;;;6.58;84.09
23172;BME280;11754;42.664;23.594;2024-02-28T01:30:55;95770.97;;;6.66;84.31
23172;BME280;11754;42.664;23.594;2024-02-28T01:33:21;95780.66;;;6.75;83.70
23172;BME280;11754;42.664;23.594;2024-02-28T01:39:08;95772.00;;;7.04;81.60
23172;BME280;11754;42.664;23.594;2024-02-28T01:41:33;95778.19;;;6.93;81.92
23172;BME280;11754;42.664;23.594;2024-02-28T01:43:59;95787.28;;;6.98;81.28
23172;BME280;11754;42.664;23.594;2024-02-28T01:46:28;95781.91;;;7.10;80.30
23172;BME280;11754;42.664;23.594;2024-02-28T01:48:55;95779.03;;;7.13;80.26
23172;BME280;11754;42.664;23.594;2024-02-28T01:51:22;95789.50;;;6.84;81.83
23172;BME280;11754;42.664;23.594;2024-02-28T01:53:50;95793.38;;;6.89;81.99
23172;BME280;11754;42.664;23.594;2024-02-28T01:56:16;95790.97;;;6.67;83.26
23172;BME280;11754;42.664;23.594;2024-02-28T01:58:46;95785.56;;;6.59;83.77
23172;BME280;11754;42.664;23.594;2024-02-28T02:01:14;95792.19;;;6.63;84.05
23172;BME280;11754;42.664;23.594;2024-02-28T02:03:40;95797.28;;;6.55;84.40
23172;BME280;11754;42.664;23.594;2024-02-28T02:06:05;95801.13;;;6.50;84.93
23172;BME280;11754;42.664;23.594;2024-02-28T02:08:32;95793.25;;;6.41;85.42
23172;BME280;11754;42.664;23.594;2024-02-28T02:10:58;95788.56;;;6.44;85.46
23172;BME280;11754;42.664;23.594;2024-02-28T02:13:24;95788.81;;;6.41;85.87
23172;BME280;11754;42.664;23.594;2024-02-28T02:15:49;95792.41;;;6.40;85.86
23172;BME280;11754;42.664;23.594;2024-02-28T02:18:30;95797.03;;;6.27;86.24
23172;BME280;11754;42.664;23.594;2024-02-28T02:21:02;95798.97;;;6.25;86.38
23172;BME280;11754;42.664;23.594;2024-02-28T02:23:30;95790.00;;;6.18;86.75
23172;BME280;11754;42.664;23.594;2024-02-28T02:25:55;95794.63;;;6.45;85.88
23172;BME280;11754;42.664;23.594;2024-02-28T02:28:21;95798.22;;;6.44;85.52
23172;BME280;11754;42.664;23.594;2024-02-28T02:30:46;95795.44;;;6.36;85.74
23172;BME280;11754;42.664;23.594;2024-02-28T02:33:12;95806.84;;;6.25;86.38
23172;BME280;11754;42.664;23.594;2024-02-28T02:35:37;95797.84;;;6.18;87.10
23172;BME280;11754;42.664;23.594;2024-02-28T02:38:03;95795.06;;;6.10;87.23
23172;BME280;11754;42.664;23.594;2024-02-28T02:40:28;95808.53;;;6.05;87.52
23172;BME280;11754;42.664;23.594;2024-02-28T02:42:54;95802.56;;;6.24;87.35
23172;BME280;11754;42.664;23.594;2024-02-28T02:45:24;95806.69;;;6.17;86.97
23172;BME280;11754;42.664;23.594;2024-02-28T02:47:50;95802.72;;;6.01;87.55
23172;BME280;11754;42.664;23.594;2024-02-28T02:50:15;95807.13;;;6.01;88.26
23172;BME280;11754;42.664;23.594;2024-02-28T02:52:41;95802.97;;;5.98;88.55
23172;BME280;11754;42.664;23.594;2024-02-28T02:55:06;95813.44;;;5.98;88.33
23172;BME280;11754;42.664;23.594;2024-02-28T02:57:33;95802.53;;;5.93;87.43
23172;BME280;11754;42.664;23.594;2024-02-28T02:59:58;95799.97;;;5.82;88.08
23172;BME280;11754;42.664;23.594;2024-02-28T03:02:24;95800.06;;;5.71;88.72
23172;BME280;11754;42.664;23.594;2024-02-28T03:04:49;95796.03;;;5.67;89.38
23172;BME280;11754;42.664;23.594;2024-02-28T03:07:14;95796.09;;;5.56;89.74
23172;BME280;11754;42.664;23.594;2024-02-28T03:09:40;95791.38;;;5.49;90.06
23172;BME280;11754;42.664;23.594;2024-02-28T03:12:06;95802.66;;;5.50;89.75
23172;BME280;11754;42.664;23.594;2024-02-28T03:14:31;95793.16;;;5.49;89.78
23172;BME280;11754;42.664;23.594;2024-02-28T03:16:57;95797.09;;;5.43;90.05
23172;BME280;11754;42.664;23.594;2024-02-28T03:19:22;95795.69;;;5.39;89.91
23172;BME280;11754;42.664;23.594;2024-02-28T03:21:48;95799.03;;;5.41;90.00
23172;BME280;11754;42.664;23.594;2024-02-28T03:24:13;95795.44;;;5.42;90.75
23172;BME280;11754;42.664;23.594;2024-02-28T03:26:38;95797.34;;;5.40;91.26
23172;BME280;11754;42.664;23.594;2024-02-28T03:29:04;95788.09;;;5.36;91.38
23172;BME280;11754;42.664;23.594;2024-02-28T03:31:29;95798.16;;;5.41;91.13
23172;BME280;11754;42.664;23.594;2024-02-28T03:33:55;95795.94;;;5.36;91.23
23172;BME280;11754;42.664;23.594;2024-02-28T03:36:20;95806.16;;;5.39;90.86
23172;BME280;11754;42.664;23.594;2024-02-28T03:38:46;95806.66;;;5.33;90.51
23172;BME280;11754;42.664;23.594;2024-02-28T03:41:11;95815.72;;;5.29;90.20
23172;BME280;11754;42.664;23.594;2024-02-28T03:43:37;95812.66;;;5.24;89.95
23172;BME280;11754;42.664;23.594;2024-02-28T03:46:03;95814.75;;;5.30;89.58
23172;BME280;11754;42.664;23.594;2024-02-28T03:48:28;95814.31;;;5.25;89.36
23172;BME280;11754;42.664;23.594;2024-02-28T03:50:53;95817.16;;;5.22;89.38
23172;BME280;11754;42.664;23.594;2024-02-28T03:53:19;95818.13;;;5.21;89.20
23172;BME280;11754;42.664;23.594;2024-02-28T03:55:44;95816.22;;;5.23;89.18
23172;BME280;11754;42.664;23.594;2024-02-28T03:58:10;95813.63;;;5.23;89.70
23172;BME280;11754;42.664;23.594;2024-02-28T04:00:36;95819.53;;;5.25;89.62
23172;BME280;11754;42.664;23.594;2024-02-28T04:03:02;95809.16;;;5.35;89.41
23172;BME280;11754;42.664;23.594;2024-02-28T04:05:28;95807.38;;;5.35;89.00
23172;BME280;11754;42.664;23.594;2024-02-28T04:07:54;95803.59;;;5.28;89.28
23172;BME280;11754;42.664;23.594;2024-02-28T04:10:20;95815.78;;;5.39;89.27
23172;BME280;11754;42.664;23.594;2024-02-28T04:12:46;95815.56;;;5.42;88.76
23172;BME280;11754;42.664;23.594;2024-02-28T04:15:11;95814.00;;;5.39;88.61
23172;BME280;11754;42.664;23.594;2024-02-28T04:17:40;95813.28;;;5.37;88.26
23172;BME280;11754;42.664;23.594;2024-02-28T04:20:10;95806.91;;;5.30;88.41
23172;BME280;11754;42.664;23.594;2024-02-28T04:22:36;95807.31;;;5.46;88.41
23172;BME280;11754;42.664;23.594;2024-02-28T04:25:03;95808.59;;;5.31;88.28
23172;BME280;11754;42.664;23.594;2024-02-28T04:27:29;95809.75;;;5.38;88.26
23172;BME280;11754;42.664;23.594;2024-02-28T04:29:54;95811.84;;;5.44;88.60
23172;BME280;11754;42.664;23.594;2024-02-28T04:32:20;95807.81;;;5.40;88.36
23172;BME280;11754;42.664;23.594;2024-02-28T04:34:45;95813.63;;;5.44;88.32
23172;BME280;11754;42.664;23.594;2024-02-28T04:37:11;95811.59;;;5.47;88.51
23172;BME280;11754;42.664;23.594;2024-02-28T04:39:36;95811.38;;;5.39;88.74
23172;BME280;11754;42.664;23.594;2024-02-28T04:42:01;95811.16;;;5.42;89.07
23172;BME280;11754;42.664;23.594;2024-02-28T04:44:27;95817.47;;;5.61;88.05
23172;BME280;11754;42.664;23.594;2024-02-28T04:46:52;95815.75;;;5.50;87.64
23172;BME280;11754;42.664;23.594;2024-02-28T04:49:18;95807.88;;;5.50;87.67
23172;BME280;11754;42.664;23.594;2024-02-28T04:51:43;95809.03;;;5.57;88.05
23172;BME280;11754;42.664;23.594;2024-02-28T04:54:09;95815.19;;;5.67;87.76
23172;BME280;11754;42.664;23.594;2024-02-28T04:56:42;95811.47;;;5.49;88.10
23172;BME280;11754;42.664;23.594;2024-02-28T04:59:13;95817.03;;;5.56;88.62
23172;BME280;11754;42.664;23.594;2024-02-28T05:01:39;95816.75;;;5.59;88.13
23172;BME280;11754;42.664;23.594;2024-02-28T05:04:07;95820.34;;;5.58;88.73
23172;BME280;11754;42.664;23.594;2024-02-28T05:06:32;95822.28;;;5.56;88.59
23172;BME280;11754;42.664;23.594;2024-02-28T05:08:58;95821.94;;;5.49;88.96
23172;BME280;11754;42.664;23.594;2024-02-28T05:11:24;95824.41;;;5.50;88.90
23172;BME280;11754;42.664;23.594;2024-02-28T05:13:49;95826.06;;;5.51;89.18
23172;BME280;11754;42.664;23.594;2024-02-28T05:16:15;95827.22;;;5.59;88.89
23172;BME280;11754;42.664;23.594;2024-02-28T05:18:41;95837.44;;;5.62;88.68
23172;BME280;11754;42.664;23.594;2024-02-28T05:21:06;95840.53;;;5.67;88.03
23172;BME280;11754;42.664;23.594;2024-02-28T05:23:32;95842.81;;;5.81;87.16
23172;BME280;11754;42.664;23.594;2024-02-28T05:25:57;95848.94;;;5.91;86.25
23172;BME280;11754;42.664;23.594;2024-02-28T05:28:28;95848.44;;;5.97;85.52
23172;BME280;11754;42.664;23.594;2024-02-28T05:30:54;95849.03;;;6.01;85.95
23172;BME280;11754;42.664;23.594;2024-02-28T05:33:19;95857.06;;;6.09;84.45
23172;BME280;11754;42.664;23.594;2024-02-28T05:35:45;95853.84;;;5.96;84.68
23172;BME280;11754;42.664;23.594;2024-02-28T05:38:10;95856.59;;;5.83;85.26
23172;BME280;11754;42.664;23.594;2024-02-28T05:47:19;95868.09;;;6.34;81.87
23172;BME280;11754;42.664;23.594;2024-02-28T05:49:45;95873.72;;;6.29;82.09
23172;BME280;11754;42.664;23.594;2024-02-28T05:52:10;95879.78;;;6.30;81.68
23172;BME280;11754;42.664;23.594;2024-02-28T05:54:36;95876.59;;;6.26;82.74
23172;BME280;11754;42.664;23.594;2024-02-28T05:57:02;95877.00;;;6.21;83.03
23172;BME280;11754;42.664;23.594;2024-02-28T05:59:27;95876.91;;;6.63;83.00
23172;BME280;11754;42.664;23.594;2024-02-28T06:01:53;95882.63;;;6.78;82.03
23172;BME280;11754;42.664;23.594;2024-02-28T06:04:18;95887.94;;;6.97;81.67
23172;BME280;11754;42.664;23.594;2024-02-28T06:06:44;95891.16;;;7.11;81.60
23172;BME280;11754;42.664;23.594;2024-02-28T06:09:09;95895.03;;;7.26;81.23
23172;BME280;11754;42.664;23.594;2024-02-28T06:11:35;95898.66;;;7.44;80.59
23172;BME280;11754;42.664;23.594;2024-02-28T06:14:01;95898.78;;;7.53;80.20
23172;BME280;11754;42.664;23.594;2024-02-28T06:16:27;95890.94;;;7.62;79.67
23172;BME280;11754;42.664;23.594;2024-02-28T06:18:53;95893.41;;;7.83;79.56
23172;BME280;11754;42.664;23.594;2024-02-28T06:21:21;95890.53;;;7.86;79.22
23172;BME280;11754;42.664;23.594;2024-02-28T06:23:47;95896.16;;;7.91;79.59
23172;BME280;11754;42.664;23.594;2024-02-28T06:26:13;95897.09;;;8.19;78.98
23172;BME280;11754;42.664;23.594;2024-02-28T06:28:45;95893.88;;;8.35;78.95
23172;BME280;11754;42.664;23.594;2024-02-28T06:31:17;95887.22;;;8.51;78.75
23172;BME280;11754;42.664;23.594;2024-02-28T06:33:43;95909.06;;;8.61;78.20
23172;BME280;11754;42.664;23.594;2024-02-28T06:36:19;95899.84;;;8.84;78.40
23172;BME280;11754;42.664;23.594;2024-02-28T06:38:45;95901.19;;;8.98;77.45
23172;BME280;11754;42.664;23.594;2024-02-28T06:41:10;95906.34;;;9.18;77.28
23172;BME280;11754;42.664;23.594;2024-02-28T06:43:35;95904.22;;;9.49;76.34
23172;BME280;11754;42.664;23.594;2024-02-28T06:46:01;95895.56;;;9.74;75.50
23172;BME280;11754;42.664;23.594;2024-02-28T06:48:28;95900.44;;;10.05;74.62
23172;BME280;11754;42.664;23.594;2024-02-28T06:50:54;95897.03;;;10.30;73.99
23172;BME280;11754;42.664;23.594;2024-02-28T06:53:19;95899.84;;;10.55;73.14
23172;BME280;11754;42.664;23.594;2024-02-28T06:55:44;95896.84;;;10.84;71.71
23172;BME280;11754;42.664;23.594;2024-02-28T06:58:11;95892.50;;;11.01;71.25
23172;BME280;11754;42.664;23.594;2024-02-28T07:00:36;95904.44;;;11.21;70.70
23172;BME280;11754;42.664;23.594;2024-02-28T07:03:01;95906.84;;;11.49;69.67
23172;BME280;11754;42.664;23.594;2024-02-28T07:05:27;95909.38;;;11.67;69.32
23172;BME280;11754;42.664;23.594;2024-02-28T07:07:52;95896.41;;;11.98;68.17
23172;BME280;11754;42.664;23.594;2024-02-28T07:10:19;95897.56;;;12.20;66.85
23172;BME280;11754;42.664;23.594;2024-02-28T07:12:44;95896.88;;;12.34;66.59
23172;BME280;11754;42.664;23.594;2024-02-28T07:15:09;95887.75;;;12.53;66.33
23172;BME280;11754;42.664;23.594;2024-02-28T07:17:35;95887.41;;;12.64;65.64
23172;BME280;11754;42.664;23.594;2024-02-28T07:20:00;95883.72;;;12.82;65.46
23172;BME280;11754;42.664;23.594;2024-02-28T07:22:26;95888.63;;;13.01;64.41
23172;BME280;11754;42.664;23.594;2024-02-28T07:24:51;95886.28;;;13.06;64.26
23172;BME280;11754;42.664;23.594;2024-02-28T07:27:17;95885.44;;;13.14;64.39
23172;BME280;11754;42.664;23.594;2024-02-28T07:29:42;95891.81;;;13.36;63.94
23172;BME280;11754;42.664;23.594;2024-02-28T07:32:07;95888.69;;;13.63;63.78
23172;BME280;11754;42.664;23.594;2024-02-28T07:34:33;95891.75;;;13.98;62.33
23172;BME280;11754;42.664;23.594;2024-02-28T07:36:59;95892.69;;;14.05;60.94
23172;BME280;11754;42.664;23.594;2024-02-28T07:39:25;95895.66;;;14.10;60.32
23172;BME280;11754;42.664;23.594;2024-02-28T07:41:50;95890.25;;;14.04;60.12
23172;BME280;11754;42.664;23.594;2024-02-28T07:44:16;95893.56;;;14.21;60.00
23172;BME280;11754;42.664;23.594;2024-02-28T07:46:42;95895.59;;;14.18;58.91
23172;BME280;11754;42.664;23.594;2024-02-28T07:49:07;95899.78;;;14.36;59.61
23172;BME280;11754;42.664;23.594;2024-02-28T07:51:33;95890.50;;;14.70;57.94
23172;BME280;11754;42.664;23.594;2024-02-28T07:53:59;95883.38;;;14.85;57.32
23172;BME280;11754;42.664;23.594;2024-02-28T07:56:24;95884.47;;;14.76;56.37
23172;BME280;11754;42.664;23.594;2024-02-28T07:58:49;95895.59;;;14.56;57.05
23172;BME280;11754;42.664;23.594;2024-02-28T08:01:15;95888.06;;;14.45;57.19
23172;BME280;11754;42.664;23.594;2024-02-28T08:03:42;95879.78;;;14.63;57.62
23172;BME280;11754;42.664;23.594;2024-02-28T08:06:07;95888.88;;;14.98;56.67
23172;BME280;11754;42.664;23.594;2024-02-28T08:08:37;95892.53;;;15.27;56.19
23172;BME280;11754;42.664;23.594;2024-02-28T08:11:02;95889.13;;;15.48;54.29
23172;BME280;11754;42.664;23.594;2024-02-28T08:13:28;95891.97;;;15.82;53.38
23172;BME280;11754;42.664;23.594;2024-02-28T08:15:54;95901.41;;;15.85;52.60
23172;BME280;11754;42.664;23.594;2024-02-28T08:18:20;95886.22;;;16.00;52.32
23172;BME280;11754;42.664;23.594;2024-02-28T08:20:45;95885.59;;;15.98;52.45
23172;BME280;11754;42.664;23.594;2024-02-28T08:23:10;95882.72;;;16.43;51.32
23172;BME280;11754;42.664;23.594;2024-02-28T08:25:36;95875.63;;;16.78;50.02
23172;BME280;11754;42.664;23.594;2024-02-28T08:28:03;95870.09;;;17.14;48.32
23172;BME280;11754;42.664;23.594;2024-02-28T08:30:29;95868.94;;;17.30;47.67
23172;BME280;11754;42.664;23.594;2024-02-28T08:32:54;95867.00;;;17.59;47.07
23172;BME280;11754;42.664;23.594;2024-02-28T08:35:20;95860.38;;;18.09;45.29
23172;BME280;11754;42.664;23.594;2024-02-28T08:37:45;95859.34;;;18.17;45.10
23172;BME280;11754;42.664;23.594;2024-02-28T08:40:11;95852.19;;;18.37;44.69
23172;BME280;11754;42.664;23.594;2024-02-28T08:42:37;95857.69;;;19.02;43.00
23172;BME280;11754;42.664;23.594;2024-02-28T08:45:03;95859.56;;;19.47;42.47
23172;BME280;11754;42.664;23.594;2024-02-28T08:47:29;95857.25;;;19.70;40.97
23172;BME280;11754;42.664;23.594;2024-02-28T08:49:54;95857.28;;;19.57;41.21
23172;BME280;11754;42.664;23.594;2024-02-28T08:52:20;95855.03;;;19.47;41.22
23172;BME280;11754;42.664;23.594;2024-02-28T08:54:46;95848.78;;;19.73;41.36
23172;BME280;11754;42.664;23.594;2024-02-28T08:57:12;95850.72;;;20.48;40.46
23172;BME280;11754;42.664;23.594;2024-02-28T08:59:37;95852.06;;;21.25;38.71
23172;BME280;11754;42.664;23.594;2024-02-28T09:02:03;95837.03;;;22.03;37.43
23172;BME280;11754;42.664;23.594;2024-02-28T09:04:29;95837.66;;;22.70;35.57
23172;BME280;11754;42.664;23.594;2024-02-28T09:06:54;95835.31;;;22.86;35.42
23172;BME280;11754;42.664;23.594;2024-02-28T09:09:20;95834.16;;;23.17;34.68
23172;BME280;11754;42.664;23.594;2024-02-28T09:11:45;95830.06;;;23.66;33.67
23172;BME280;11754;42.664;23.594;2024-02-28T09:14:11;95825.94;;;24.50;32.30
23172;BME280;11754;42.664;23.594;2024-02-28T09:16:36;95820.97;;;25.36;31.63
23172;BME280;11754;42.664;23.594;2024-02-28T09:19:03;95820.34;;;26.91;29.13
23172;BME280;11754;42.664;23.594;2024-02-28T09:21:29;95809.47;;;27.96;27.96
23172;BME280;11754;42.664;23.594;2024-02-28T09:23:54;95806.03;;;28.57;26.57
23172;BME280;11754;42.664;23.594;2024-02-28T09:26:20;95808.44;;;28.74;26.07
23172;BME280;11754;42.664;23.594;2024-02-28T09:28:45;95816.31;;;28.86;26.26
23172;BME280;11754;42.664;23.594;2024-02-28T09:31:11;95809.50;;;28.88;26.19
23172;BME280;11754;42.664;23.594;2024-02-28T09:33:37;95805.13;;;29.23;25.56
23172;BME280;11754;42.664;23.594;2024-02-28T09:36:03;95809.41;;;29.39;25.50
23172;BME280;11754;42.664;23.594;2024-02-28T09:38:29;95797.84;;;28.83;25.46
23172;BME280;11754;42.664;23.594;2024-02-28T09:40:55;95803.03;;;28.43;25.54
23172;BME280;11754;42.664;23.594;2024-02-28T09:43:31;95793.22;;;28.88;25.40
23172;BME280;11754;42.664;23.594;2024-02-28T09:46:03;95794.63;;;28.45;25.87
23172;BME280;11754;42.664;23.594;2024-02-28T09:48:29;95801.03;;;27.77;26.54
23172;BME280;11754;42.664;23.594;2024-02-28T09:50:55;95798.66;;;28.27;25.84
23172;BME280;11754;42.664;23.594;2024-02-28T09:53:21;95792.03;;;29.40;24.76
23172;BME280;11754;42.664;23.594;2024-02-28T09:55:49;95792.81;;;31.32;22.63
23172;BME280;11754;42.664;23.594;2024-02-28T09:58:15;95788.19;;;33.31;20.56
23172;BME280;11754;42.664;23.594;2024-02-28T10:00:41;95769.50;;;35.54;19.38
23172;BME280;11754;42.664;23.594;2024-02-28T10:03:13;95754.97;;;37.39;17.37
23172;BME280;11754;42.664;23.594;2024-02-28T10:05:39;95756.00;;;38.69;16.46
23172;BME280;11754;42.664;23.594;2024-02-28T10:08:05;95753.63;;;39.37;16.13
23172;BME280;11754;42.664;23.594;2024-02-28T10:10:31;95745.47;;;39.41;15.70
23172;BME280;11754;42.664;23.594;2024-02-28T10:12:57;95741.22;;;39.68;15.11
23172;BME280;11754;42.664;23.594;2024-02-28T10:15:26;95742.75;;;40.06;14.05
23172;BME280;11754;42.664;23.594;2024-02-28T10:17:51;95736.63;;;39.48;13.90
23172;BME280;11754;42.664;23.594;2024-02-28T10:20:17;95732.13;;;38.40;14.29
23172;BME280;11754;42.664;23.594;2024-02-28T10:22:42;95744.31;;;37.29;14.70
23172;BME280;11754;42.664;23.594;2024-02-28T10:25:08;95738.22;;;35.81;15.56
23172;BME280;11754;42.664;23.594;2024-02-28T10:27:34;95731.00;;;34.43;16.63
23172;BME280;11754;42.664;23.594;2024-02-28T10:30:00;95729.84;;;33.35;17.53
23172;BME280;11754;42.664;23.594;2024-02-28T10:32:30;95730.59;;;32.67;18.03
23172;BME280;11754;42.664;23.594;2024-02-28T10:34:56;95727.03;;;31.63;18.72
23172;BME280;11754;42.664;23.594;2024-02-28T10:37:23;95708.91;;;30.81;19.20
23172;BME280;11754;42.664;23.594;2024-02-28T10:39:51;95725.66;;;30.40;20.06
23172;BME280;11754;42.664;23.594;2024-02-28T10:42:18;95732.75;;;29.48;22.28
23172;BME280;11754;42.664;23.594;2024-02-28T10:44:44;95725.69;;;28.56;23.33
23172;BME280;11754;42.664;23.594;2024-02-28T10:47:10;95734.47;;;27.29;24.98
23172;BME280;11754;42.664;23.594;2024-02-28T10:49:36;95725.44;;;26.60;26.02
23172;BME280;11754;42.664;23.594;2024-02-28T10:52:03;95724.38;;;26.62;26.10
23172;BME280;11754;42.664;23.594;2024-02-28T10:54:29;95723.78;;;26.54;26.20
23172;BME280;11754;42.664;23.594;2024-02-28T10:56:55;95724.25;;;26.89;26.15
23172;BME280;11754;42.664;23.594;2024-02-28T10:59:23;95719.94;;;27.61;25.45
23172;BME280;11754;42.664;23.594;2024-02-28T11:01:48;95710.81;;;28.38;24.12
23172;BME280;11754;42.664;23.594;2024-02-28T11:04:16;95708.97;;;29.74;22.52
23172;BME280;11754;42.664;23.594;2024-02-28T11:06:53;95702.75;;;31.43;21.31
23172;BME280;11754;42.664;23.594;2024-02-28T11:09:23;95706.97;;;33.45;19.11
23172;BME280;11754;42.664;23.594;2024-02-28T11:11:49;95695.66;;;35.18;18.09
23172;BME280;11754;42.664;23.594;2024-02-28T11:14:16;95693.50;;;35.72;17.57
23172;BME280;11754;42.664;23.594;2024-02-28T11:16:42;95685.75;;;36.43;16.96
23172;BME280;11754;42.664;23.594;2024-02-28T11:19:19;95686.84;;;37.95;15.60
23172;BME280;11754;42.664;23.594;2024-02-28T11:21:54;95685.59;;;39.29;14.52
23172;BME280;11754;42.664;23.594;2024-02-28T11:24:23;95675.13;;;40.56;13.74
23172;BME280;11754;42.664;23.594;2024-02-28T11:26:52;95679.78;;;43.02;12.52
23172;BME280;11754;42.664;23.594;2024-02-28T11:29:28;95660.56;;;44.60;11.55
23172;BME280;11754;42.664;23.594;2024-02-28T11:31:54;95655.16;;;45.74;10.82
23172;BME280;11754;42.664;23.594;2024-02-28T11:34:20;95660.00;;;47.18;10.23
23172;BME280;11754;42.664;23.594;2024-02-28T11:36:50;95646.38;;;47.63;9.58
23172;BME280;11754;42.664;23.594;2024-02-28T11:39:17;95650.81;;;47.07;9.81
23172;BME280;11754;42.664;23.594;2024-02-28T11:41:43;95647.56;;;46.69;9.88
23172;BME280;11754;42.664;23.594;2024-02-28T11:44:12;95642.84;;;46.98;9.64
23172;BME280;11754;42.664;23.594;2024-02-28T11:46:42;95636.28;;;48.12;9.27
23172;BME280;11754;42.664;23.594;2024-02-28T11:49:07;95639.84;;;48.86;8.70
23172;BME280;11754;42.664;23.594;2024-02-28T11:51:33;95639.47;;;49.33;8.60
23172;BME280;11754;42.664;23.594;2024-02-28T11:54:01;95643.22;;;49.12;8.63
23172;BME280;11754;42.664;23.594;2024-02-28T11:56:26;95634.59;;;49.40;8.57
23172;BME280;11754;42.664;23.594;2024-02-28T11:58:53;95638.25;;;49.75;8.09
23172;BME280;11754;42.664;23.594;2024-02-28T12:01:34;95630.59;;;48.93;8.36
23172;BME280;11754;42.664;23.594;2024-02-28T12:04:02;95625.75;;;49.45;8.23
23172;BME280;11754;42.664;23.594;2024-02-28T12:06:29;95627.09;;;50.94;8.02
23172;BME280;11754;42.664;23.594;2024-02-28T12:08:55;95621.19;;;51.55;7.51
23172;BME280;11754;42.664;23.594;2024-02-28T12:11:20;95623.25;;;51.08;7.46
23172;BME280;11754;42.664;23.594;2024-02-28T12:13:46;95624.94;;;51.25;7.71
23172;BME280;11754;42.664;23.594;2024-02-28T12:16:11;95609.09;;;50.03;7.95
23172;BME280;11754;42.664;23.594;2024-02-28T12:18:37;95602.88;;;50.19;7.64
23172;BME280;11754;42.664;23.594;2024-02-28T12:21:02;95589.66;;;51.67;7.20
23172;BME280;11754;42.664;23.594;2024-02-28T12:23:29;95597.06;;;51.58;7.42
23172;BME280;11754;42.664;23.594;2024-02-28T12:25:54;95586.66;;;51.98;6.91
23172;BME280;11754;42.664;23.594;2024-02-28T12:28:20;95578.16;;;52.54;6.63
23172;BME280;11754;42.664;23.594;2024-02-28T12:30:45;95583.78;;;52.54;6.53
23172;BME280;11754;42.664;23.594;2024-02-28T12:33:11;95576.25;;;52.68;6.37
23172;BME280;11754;42.664;23.594;2024-02-28T12:35:39;95568.06;;;51.41;6.86
23172;BME280;11754;42.664;23.594;2024-02-28T12:38:04;95568.38;;;50.49;7.59
23172;BME280;11754;42.664;23.594;2024-02-28T12:40:30;95569.44;;;49.70;7.33
23172;BME280;11754;42.664;23.594;2024-02-28T12:42:56;95568.78;;;48.69;7.84
23172;BME280;11754;42.664;23.594;2024-02-28T12:45:21;95566.09;;;48.55;8.00
23172;BME280;11754;42.664;23.594;2024-02-28T12:47:47;95573.22;;;49.15;7.69
23172;BME280;11754;42.664;23.594;2024-02-28T12:50:12;95566.13;;;51.38;7.24
23172;BME280;11754;42.664;23.594;2024-02-28T12:52:38;95561.75;;;51.97;6.56
23172;BME280;11754;42.664;23.594;2024-02-28T12:55:03;95556.75;;;52.77;6.22
23172;BME280;11754;42.664;23.594;2024-02-28T12:57:29;95551.59;;;53.79;5.81
23172;BME280;11754;42.664;23.594;2024-02-28T12:59:54;95563.00;;;53.88;5.90
23172;BME280;11754;42.664;23.594;2024-02-28T13:02:21;95551.41;;;53.12;6.10
23172;BME280;11754;42.664;23.594;2024-02-28T13:04:47;95552.84;;;52.71;5.86
23172;BME280;11754;42.664;23.594;2024-02-28T13:07:13;95557.84;;;51.07;6.79
23172;BME280;11754;42.664;23.594;2024-02-28T13:09:39;95555.75;;;50.88;6.77
23172;BME280;11754;42.664;23.594;2024-02-28T13:12:05;95548.31;;;49.96;6.82
23172;BME280;11754;42.664;23.594;2024-02-28T13:14:31;95554.03;;;49.48;7.37
23172;BME280;11754;42.664;23.594;2024-02-28T13:16:58;95551.16;;;48.72;7.36
23172;BME280;11754;42.664;23.594;2024-02-28T13:19:24;95546.56;;;47.74;8.07
23172;BME280;11754;42.664;23.594;2024-02-28T13:21:49;95554.56;;;47.65;8.28
23172;BME280;11754;42.664;23.594;2024-02-28T13:24:15;95545.28;;;48.59;7.67
23172;BME280;11754;42.664;23.594;2024-02-28T13:26:41;95549.41;;;48.93;7.21
23172;BME280;11754;42.664;23.594;2024-02-28T13:29:07;95547.75;;;48.47;7.68